Time;durP1;ratioP1;P1;durP2;ratioP2;P2;SDS_P1;SDS_P2;PMS_P1;PMS_P2;Temp;Humidity;BMP_temperature;BMP_pressure;BME280_temperature;BME280_humidity;BME280_pressure;Samples;Min_cycle;Max_cycle;Signal;HPM_P1;HPM_P2
2021/06/04 00:01:14;;;;;;;3.00;2.70;;;19.70;69.30;;;;;;4998542;28;20054;-66
2021/06/04 00:03:40;;;;;;;3.00;2.70;;;19.70;69.60;;;;;;4994325;28;20070;-67
2021/06/04 00:06:07;;;;;;;3.05;2.60;;;19.60;69.50;;;;;;4997335;28;20033;-66
2021/06/04 00:08:34;;;;;;;2.85;2.65;;;19.60;69.60;;;;;;4993099;28;20035;-67
2021/06/04 00:11:09;;;;;;;3.80;2.90;;;19.50;69.60;;;;;;4993060;28;20049;-67
2021/06/04 00:13:51;;;;;;;4.95;2.78;;;19.50;69.80;;;;;;4993226;28;20095;-67
2021/06/04 00:16:22;;;;;;;4.05;2.55;;;19.40;70.20;;;;;;4993622;28;20551;-66
2021/06/04 00:18:48;;;;;;;2.58;2.38;;;19.40;70.40;;;;;;4993413;28;20048;-66
2021/06/04 00:21:18;;;;;;;3.70;2.53;;;19.30;69.90;;;;;;4995999;28;20061;-67
2021/06/04 00:23:44;;;;;;;2.78;2.30;;;19.30;70.00;;;;;;4996487;28;20042;-66
2021/06/04 00:26:11;;;;;;;2.70;2.47;;;19.30;69.90;;;;;;4997010;28;20052;-67
2021/06/04 00:28:37;;;;;;;3.47;2.33;;;19.20;69.90;;;;;;4996324;28;20030;-67
2021/06/04 00:31:04;;;;;;;2.35;2.25;;;19.20;69.90;;;;;;4998618;28;20061;-66
2021/06/04 00:33:30;;;;;;;5.63;2.78;;;19.20;69.90;;;;;;4995924;28;20046;-67
2021/06/04 00:35:56;;;;;;;2.40;2.20;;;19.10;70.00;;;;;;4996132;28;20042;-67
2021/06/04 00:38:21;;;;;;;3.65;2.40;;;19.00;70.00;;;;;;5013425;28;20492;-67
2021/06/04 00:40:51;;;;;;;2.90;2.70;;;19.00;70.20;;;;;;4996218;28;20126;-67
2021/06/04 00:43:19;;;;;;;4.35;2.72;;;18.90;70.40;;;;;;4992882;28;20034;-67
2021/06/04 00:45:49;;;;;;;2.53;2.38;;;18.80;70.40;;;;;;4993933;28;20548;-66
2021/06/04 00:48:15;;;;;;;2.50;2.33;;;18.80;70.80;;;;;;4991718;28;20802;-67
2021/06/04 00:50:47;;;;;;;3.40;2.58;;;18.80;70.70;;;;;;4992920;28;20038;-67
2021/06/04 00:53:15;;;;;;;3.70;2.58;;;18.70;71.00;;;;;;4993716;28;20073;-66
2021/06/04 00:55:42;;;;;;;3.72;2.80;;;18.70;70.90;;;;;;4994695;28;20085;-66
2021/06/04 00:58:11;;;;;;;4.43;2.67;;;18.60;71.10;;;;;;4996907;28;20077;-66
2021/06/04 01:00:41;;;;;;;3.72;2.30;;;18.50;71.10;;;;;;5002080;28;20048;-66
2021/06/04 01:03:11;;;;;;;2.88;2.45;;;18.50;71.10;;;;;;5003849;28;20057;-66
2021/06/04 01:05:40;;;;;;;2.60;2.38;;;18.50;71.30;;;;;;5002045;28;20117;-66
2021/06/04 01:08:36;;;;;;;3.63;2.58;;;18.50;71.30;;;;;;5006783;28;20045;-66
2021/06/04 01:11:07;;;;;;;2.97;2.50;;;18.50;72.00;;;;;;5009198;28;20018;-66
2021/06/04 01:13:51;;;;;;;2.60;2.40;;;18.50;71.40;;;;;;5002422;28;20463;-66
2021/06/04 01:16:23;;;;;;;4.15;2.15;;;18.40;71.70;;;;;;5005808;28;20026;-66
2021/06/04 01:19:09;;;;;;;3.20;2.80;;;18.40;71.40;;;;;;5003661;28;20073;-66
2021/06/04 01:21:40;;;;;;;2.60;2.40;;;18.40;72.30;;;;;;5003661;28;20022;-66
2021/06/04 01:24:36;;;;;;;3.13;2.83;;;18.40;71.40;;;;;;5008610;28;20094;-66
2021/06/04 01:27:07;;;;;;;2.83;2.38;;;18.30;72.30;;;;;;5009369;28;20540;-66
2021/06/04 01:29:39;;;;;;;3.10;2.83;;;18.30;71.50;;;;;;4998306;28;20114;-66
2021/06/04 01:32:13;;;;;;;2.70;2.50;;;18.30;71.50;;;;;;4995543;28;20156;-66
2021/06/04 01:34:44;;;;;;;3.00;2.70;;;18.20;71.80;;;;;;5008255;28;20512;-66
2021/06/04 01:37:16;;;;;;;2.80;2.60;;;18.30;71.60;;;;;;4998803;28;20041;-66
2021/06/04 01:39:46;;;;;;;2.95;2.75;;;18.20;71.80;;;;;;5005447;28;20029;-66
2021/06/04 01:42:17;;;;;;;2.72;2.25;;;18.20;72.90;;;;;;5006109;28;20515;-67
2021/06/04 01:44:53;;;;;;;2.60;2.45;;;18.10;72.00;;;;;;5005942;28;20534;-66
2021/06/04 01:47:25;;;;;;;2.90;2.60;;;18.10;72.00;;;;;;4999559;28;20555;-67
2021/06/04 01:49:53;;;;;;;3.13;2.83;;;18.10;72.00;;;;;;4998821;28;20038;-66
2021/06/04 01:52:27;;;;;;;4.18;3.05;;;18.10;72.00;;;;;;4997119;28;20037;-66
2021/06/04 01:55:01;;;;;;;3.22;2.75;;;18.10;72.50;;;;;;5006136;28;20021;-66
2021/06/04 01:57:34;;;;;;;3.33;3.03;;;18.10;72.30;;;;;;5002638;28;20096;-66
2021/06/04 02:00:01;;;;;;;4.05;3.17;;;18.10;72.30;;;;;;5006553;28;20021;-66
2021/06/04 02:02:33;;;;;;;5.82;3.30;;;18.10;72.00;;;;;;4998740;28;20401;-65
2021/06/04 02:04:59;;;;;;;3.10;2.88;;;18.00;72.30;;;;;;5002490;28;20029;-66
2021/06/04 02:07:29;;;;;;;3.47;2.95;;;18.00;72.00;;;;;;5010765;28;20030;-66
2021/06/04 02:09:55;;;;;;;3.00;2.80;;;17.90;72.20;;;;;;5001947;28;20036;-66
2021/06/04 02:12:21;;;;;;;3.95;3.22;;;17.90;72.10;;;;;;5003936;28;20026;-66
2021/06/04 02:14:56;;;;;;;3.22;2.92;;;17.90;72.30;;;;;;5008822;28;20036;-67
2021/06/04 02:17:33;;;;;;;3.43;2.83;;;17.90;72.50;;;;;;5002073;28;20017;-66
2021/06/04 02:20:23;;;;;;;3.92;2.83;;;17.90;72.90;;;;;;4998905;28;20762;-66
2021/06/04 02:23:13;;;;;;;3.08;2.80;;;17.90;72.00;;;;;;4998991;28;20029;-66
2021/06/04 02:25:59;;;;;;;3.17;2.88;;;17.90;72.50;;;;;;5002835;28;20095;-66
2021/06/04 02:28:36;;;;;;;2.92;2.72;;;17.90;72.30;;;;;;5009055;28;20100;-66
2021/06/04 02:31:27;;;;;;;4.57;3.22;;;17.80;72.30;;;;;;5008302;28;20084;-66
2021/06/04 02:34:20;;;;;;;3.35;3.08;;;17.80;72.10;;;;;;4991750;28;20042;-66
2021/06/04 02:37:01;;;;;;;3.53;3.22;;;17.80;72.90;;;;;;5009726;28;20117;-66
2021/06/04 02:39:31;;;;;;;3.95;3.10;;;17.70;72.80;;;;;;5007345;28;20443;-66
2021/06/04 02:42:06;;;;;;;4.97;3.33;;;17.70;72.40;;;;;;5005476;28;20516;-66
2021/06/04 02:44:42;;;;;;;3.72;3.28;;;17.70;73.00;;;;;;5004534;28;20030;-66
2021/06/04 02:47:19;;;;;;;3.25;2.95;;;17.60;73.00;;;;;;4999353;28;20524;-66
2021/06/04 02:49:45;;;;;;;2.95;2.75;;;17.60;72.60;;;;;;5001531;28;20037;-66
2021/06/04 02:52:35;;;;;;;2.80;2.60;;;17.60;72.50;;;;;;5003869;28;20018;-66
2021/06/04 02:55:07;;;;;;;3.10;2.80;;;17.60;73.30;;;;;;5001937;28;20932;-66
2021/06/04 02:57:38;;;;;;;3.03;2.83;;;17.50;72.70;;;;;;5009718;28;20396;-66
2021/06/04 03:00:17;;;;;;;3.60;3.30;;;17.50;72.70;;;;;;5011925;28;20072;-66
2021/06/04 03:02:43;;;;;;;3.13;2.92;;;17.50;73.00;;;;;;5012427;28;20083;-66
2021/06/04 03:05:15;;;;;;;3.40;3.10;;;17.40;72.60;;;;;;5008876;28;20436;-66
2021/06/04 03:07:42;;;;;;;2.70;2.50;;;17.40;72.80;;;;;;5010792;28;20025;-66
2021/06/04 03:10:18;;;;;;;2.80;2.60;;;17.40;72.80;;;;;;5016563;28;20084;-66
2021/06/04 03:12:47;;;;;;;4.55;2.58;;;17.40;73.30;;;;;;5014422;28;20029;-66
2021/06/04 03:15:27;;;;;;;3.58;3.28;;;17.30;72.80;;;;;;5013774;28;20109;-66
2021/06/04 03:17:54;;;;;;;2.80;2.60;;;17.30;73.30;;;;;;5012428;28;20025;-66
2021/06/04 03:20:24;;;;;;;3.20;2.55;;;17.40;72.80;;;;;;5012386;28;20022;-66
2021/06/04 03:22:50;;;;;;;2.80;2.45;;;17.30;73.00;;;;;;5016368;28;20044;-65
2021/06/04 03:25:23;;;;;;;3.10;2.90;;;17.30;72.80;;;;;;5012925;28;20029;-66
2021/06/04 03:27:49;;;;;;;3.17;2.97;;;17.20;73.50;;;;;;5010999;28;20033;-66
2021/06/04 03:30:18;;;;;;;3.30;2.70;;;17.20;73.30;;;;;;5008341;28;20049;-66
2021/06/04 03:32:45;;;;;;;2.92;2.72;;;17.20;73.60;;;;;;5010102;28;20040;-65
2021/06/04 03:35:12;;;;;;;3.15;2.67;;;17.10;73.50;;;;;;5006050;28;20025;-66
2021/06/04 03:37:39;;;;;;;3.08;2.78;;;17.10;73.60;;;;;;5002533;28;20026;-66
2021/06/04 03:40:09;;;;;;;3.13;2.78;;;17.10;73.70;;;;;;5011150;28;20054;-66
2021/06/04 03:42:34;;;;;;;3.25;2.80;;;17.00;73.90;;;;;;5015203;28;20104;-66
2021/06/04 03:45:00;;;;;;;2.70;2.50;;;17.00;73.90;;;;;;5007127;28;20152;-66
2021/06/04 03:47:26;;;;;;;3.97;2.85;;;17.00;74.00;;;;;;5007047;28;20125;-66
2021/06/04 03:49:52;;;;;;;2.60;2.45;;;16.90;74.00;;;;;;5003087;28;20038;-66
2021/06/04 03:52:21;;;;;;;2.80;2.60;;;16.90;74.10;;;;;;5014007;28;20033;-66
2021/06/04 03:54:50;;;;;;;2.78;2.30;;;16.90;74.20;;;;;;5009082;28;20022;-66
2021/06/04 03:57:19;;;;;;;3.00;2.80;;;16.90;74.30;;;;;;5016791;28;20485;-66
2021/06/04 03:59:45;;;;;;;2.85;2.63;;;16.90;74.40;;;;;;5009837;28;20064;-66
2021/06/04 04:02:17;;;;;;;2.58;2.35;;;16.90;74.20;;;;;;5013945;28;20122;-67
2021/06/04 04:04:43;;;;;;;3.03;2.70;;;16.90;74.50;;;;;;5009909;28;20038;-66
2021/06/04 04:07:11;;;;;;;2.85;2.58;;;16.90;74.40;;;;;;5006948;28;20026;-66
2021/06/04 04:09:36;;;;;;;4.28;3.00;;;16.90;74.30;;;;;;5012848;28;20034;-66
2021/06/04 04:12:03;;;;;;;3.45;3.15;;;16.90;74.20;;;;;;5010693;28;20125;-66
2021/06/04 04:14:28;;;;;;;3.38;2.80;;;16.90;74.20;;;;;;5007206;28;20420;-66
2021/06/04 04:16:54;;;;;;;3.95;2.80;;;16.90;74.20;;;;;;5003534;28;20034;-66
2021/06/04 04:19:22;;;;;;;2.90;2.58;;;17.00;74.40;;;;;;5005220;28;20058;-66
2021/06/04 04:21:50;;;;;;;2.97;2.75;;;17.00;74.00;;;;;;5006202;28;20018;-66
2021/06/04 04:24:24;;;;;;;3.55;2.60;;;17.00;74.00;;;;;;5006838;28;20030;-66
2021/06/04 04:26:50;;;;;;;3.22;2.60;;;17.00;74.40;;;;;;5004277;28;20034;-67
2021/06/04 04:29:16;;;;;;;3.33;2.83;;;17.00;73.80;;;;;;5011143;28;20073;-66
2021/06/04 04:31:48;;;;;;;3.38;3.15;;;17.10;73.90;;;;;;5004948;28;20022;-66
2021/06/04 04:34:14;;;;;;;5.05;4.55;;;17.10;74.00;;;;;;5004039;28;20026;-66
2021/06/04 04:36:47;;;;;;;6.50;4.60;;;17.10;73.90;;;;;;5006705;28;20028;-66
2021/06/04 04:39:20;;;;;;;5.05;3.95;;;17.10;74.10;;;;;;5009625;28;20052;-66
2021/06/04 04:41:47;;;;;;;5.50;4.68;;;17.20;74.40;;;;;;5011247;28;20556;-66
2021/06/04 04:44:14;;;;;;;9.30;5.82;;;17.20;74.50;;;;;;5006601;28;20040;-66
2021/06/04 04:46:40;;;;;;;20.00;11.25;;;17.20;74.60;;;;;;5004447;28;20061;-66
2021/06/04 04:49:05;;;;;;;37.38;21.33;;;17.30;74.70;;;;;;5022398;28;20081;-66
2021/06/04 04:51:33;;;;;;;37.85;22.02;;;17.30;74.60;;;;;;5003773;28;20021;-66
2021/06/04 04:53:59;;;;;;;28.38;15.85;;;17.30;74.90;;;;;;5006951;28;20116;-66
2021/06/04 04:56:26;;;;;;;16.40;10.63;;;17.40;75.10;;;;;;5007653;28;20038;-66
2021/06/04 04:58:52;;;;;;;12.10;8.48;;;17.40;75.30;;;;;;5011436;28;20037;-66
2021/06/04 05:01:19;;;;;;;7.18;6.30;;;17.50;75.40;;;;;;5007295;28;20061;-66
2021/06/04 05:03:45;;;;;;;6.95;6.25;;;17.50;75.70;;;;;;5000525;28;20428;-66
2021/06/04 05:06:11;;;;;;;6.85;6.15;;;17.60;75.80;;;;;;5005619;28;20029;-66
2021/06/04 05:08:37;;;;;;;6.95;5.45;;;17.70;75.90;;;;;;5011412;28;20096;-66
2021/06/04 05:11:04;;;;;;;6.90;5.70;;;17.80;76.00;;;;;;5009012;28;20056;-66
2021/06/04 05:13:30;;;;;;;6.15;5.55;;;17.80;76.00;;;;;;5006372;28;20041;-66
2021/06/04 05:16:03;;;;;;;6.97;6.13;;;17.90;76.00;;;;;;5006246;28;21798;-66
2021/06/04 05:18:29;;;;;;;6.47;5.20;;;17.90;76.10;;;;;;5008258;28;20503;-66
2021/06/04 05:20:54;;;;;;;7.85;6.00;;;18.00;76.10;;;;;;5001929;28;20034;-66
2021/06/04 05:23:20;;;;;;;6.60;5.70;;;18.00;76.30;;;;;;5006338;28;20411;-65
2021/06/04 05:25:48;;;;;;;7.20;5.55;;;18.10;76.50;;;;;;5003502;28;20026;-66
2021/06/04 05:28:19;;;;;;;6.60;5.80;;;18.20;76.70;;;;;;5006591;28;20026;-66
2021/06/04 05:30:46;;;;;;;6.05;5.45;;;18.30;76.60;;;;;;5004560;28;20113;-66
2021/06/04 05:33:16;;;;;;;5.80;5.13;;;18.40;76.50;;;;;;5003747;28;20108;-66
2021/06/04 05:35:43;;;;;;;8.13;5.45;;;18.50;76.30;;;;;;5005074;28;20018;-66
2021/06/04 05:38:10;;;;;;;5.35;4.85;;;18.60;76.10;;;;;;5008606;28;20511;-66
2021/06/04 05:40:40;;;;;;;6.15;5.30;;;18.70;75.90;;;;;;5011913;28;20112;-66
2021/06/04 05:43:10;;;;;;;6.25;4.70;;;18.80;76.00;;;;;;5005825;28;20076;-66
2021/06/04 05:45:38;;;;;;;5.90;4.85;;;18.90;75.80;;;;;;5000125;28;20029;-67
2021/06/04 05:48:05;;;;;;;5.60;4.90;;;18.90;75.80;;;;;;5000751;28;20374;-65
2021/06/04 05:50:36;;;;;;;5.55;5.05;;;19.10;75.40;;;;;;5008254;28;20056;-66
2021/06/04 05:53:04;;;;;;;6.65;5.07;;;19.20;75.40;;;;;;5004477;28;20069;-66
2021/06/04 05:55:31;;;;;;;7.57;4.95;;;19.30;75.30;;;;;;5002689;28;20543;-66
2021/06/04 05:57:57;;;;;;;6.35;5.00;;;19.30;75.20;;;;;;5002800;28;20046;-66
2021/06/04 06:00:32;;;;;;;5.63;4.97;;;19.50;75.20;;;;;;5006909;28;20030;-66
2021/06/04 06:02:58;;;;;;;5.40;4.85;;;19.60;75.40;;;;;;5007775;28;20018;-66
2021/06/04 06:05:24;;;;;;;6.82;4.82;;;19.60;75.10;;;;;;5003740;28;20496;-66
2021/06/04 06:07:50;;;;;;;6.15;4.80;;;19.80;74.90;;;;;;5008619;28;20088;-66
2021/06/04 06:10:16;;;;;;;4.85;4.45;;;19.90;74.60;;;;;;5012242;28;20026;-66
2021/06/04 06:12:42;;;;;;;9.82;4.70;;;20.00;74.20;;;;;;5006506;28;20572;-67
2021/06/04 06:15:09;;;;;;;7.68;4.93;;;20.10;74.00;;;;;;4992509;28;20129;-66
2021/06/04 06:17:35;;;;;;;10.30;4.35;;;20.20;73.90;;;;;;4982264;28;20034;-67
2021/06/04 06:20:02;;;;;;;9.52;4.65;;;20.30;73.50;;;;;;4979523;28;20081;-67
2021/06/04 06:22:27;;;;;;;5.80;4.18;;;20.40;73.50;;;;;;4985119;28;20588;-66
2021/06/04 06:24:53;;;;;;;5.10;4.15;;;20.50;73.30;;;;;;4986060;28;20048;-66
2021/06/04 06:27:19;;;;;;;8.15;4.38;;;20.60;73.40;;;;;;4986575;28;20076;-67
2021/06/04 06:29:45;;;;;;;5.18;4.68;;;20.60;73.00;;;;;;4982676;28;20608;-67
2021/06/04 06:32:12;;;;;;;5.00;4.50;;;20.70;73.00;;;;;;4986254;28;20137;-66
2021/06/04 06:34:38;;;;;;;4.63;4.22;;;20.80;73.10;;;;;;4990356;28;20026;-66
2021/06/04 06:37:04;;;;;;;5.20;4.70;;;20.90;73.30;;;;;;4984313;28;20045;-66
2021/06/04 06:39:32;;;;;;;5.45;4.63;;;21.00;73.10;;;;;;4982268;28;20038;-66
2021/06/04 06:42:02;;;;;;;5.28;4.78;;;21.10;73.00;;;;;;4984200;28;20455;-66
2021/06/04 06:44:28;;;;;;;5.53;4.90;;;21.20;73.20;;;;;;4983541;28;20129;-66
2021/06/04 06:46:54;;;;;;;5.55;5.05;;;21.30;73.40;;;;;;4983739;28;20034;-66
2021/06/04 06:49:23;;;;;;;5.10;4.70;;;21.40;73.20;;;;;;4987949;28;20030;-66
2021/06/04 06:51:48;;;;;;;5.20;4.70;;;21.50;72.80;;;;;;4983140;28;20043;-66
2021/06/04 06:54:18;;;;;;;5.82;4.70;;;21.60;72.50;;;;;;4999010;28;20069;-66
2021/06/04 06:56:46;;;;;;;5.50;4.50;;;21.70;72.10;;;;;;4976322;28;20202;-67
2021/06/04 06:59:12;;;;;;;5.63;4.53;;;21.80;72.30;;;;;;4985547;28;20044;-66
2021/06/04 07:01:39;;;;;;;4.65;4.25;;;21.90;72.00;;;;;;4976843;28;20054;-67
2021/06/04 07:04:05;;;;;;;5.00;4.20;;;22.10;71.70;;;;;;4986093;28;20038;-67
2021/06/04 07:06:33;;;;;;;4.82;3.60;;;22.20;71.60;;;;;;4986920;28;20072;-67
2021/06/04 07:08:59;;;;;;;5.15;3.63;;;22.30;71.10;;;;;;4986692;28;20034;-67
2021/06/04 07:11:27;;;;;;;7.07;3.80;;;22.40;70.60;;;;;;4982713;28;20709;-66
2021/06/04 07:13:55;;;;;;;11.10;3.67;;;22.50;70.20;;;;;;4989738;28;20170;-67
2021/06/04 07:16:21;;;;;;;3.63;3.33;;;22.60;70.30;;;;;;4987413;28;20038;-66
2021/06/04 07:18:51;;;;;;;5.70;3.20;;;22.70;69.50;;;;;;4985053;28;20101;-66
2021/06/04 07:21:20;;;;;;;3.17;2.90;;;22.80;68.70;;;;;;4987578;28;20364;-66
2021/06/04 07:23:47;;;;;;;5.65;2.78;;;22.90;68.30;;;;;;4985168;28;20375;-66
2021/06/04 07:26:12;;;;;;;4.32;3.30;;;23.00;68.20;;;;;;4987038;28;20904;-66
2021/06/04 07:28:39;;;;;;;3.28;2.97;;;23.10;68.20;;;;;;4990280;28;20045;-66
2021/06/04 07:31:10;;;;;;;44.28;5.05;;;23.20;67.80;;;;;;4994150;28;20031;-66
2021/06/04 07:33:40;;;;;;;6.22;3.40;;;23.30;67.80;;;;;;4991384;28;20042;-66
2021/06/04 07:36:11;;;;;;;9.43;3.55;;;23.40;66.90;;;;;;4995632;28;20141;-66
2021/06/04 07:38:37;;;;;;;4.50;3.40;;;23.50;66.50;;;;;;4992681;28;20035;-66
2021/06/04 07:41:06;;;;;;;6.88;4.47;;;23.60;66.40;;;;;;4993065;28;20030;-66
2021/06/04 07:43:35;;;;;;;5.22;3.80;;;23.70;65.70;;;;;;4992736;28;20038;-66
2021/06/04 07:46:02;;;;;;;6.53;3.90;;;23.80;65.40;;;;;;4998246;28;20521;-67
2021/06/04 07:48:28;;;;;;;4.18;3.30;;;23.90;65.10;;;;;;4997966;28;20103;-66
2021/06/04 07:50:57;;;;;;;4.90;3.50;;;24.00;65.00;;;;;;4997337;28;20409;-66
2021/06/04 07:53:26;;;;;;;5.90;3.58;;;24.00;64.70;;;;;;5006529;28;20096;-67
2021/06/04 07:55:52;;;;;;;4.22;3.72;;;24.10;64.80;;;;;;4998893;28;20085;-66
2021/06/04 07:58:18;;;;;;;3.75;3.38;;;24.20;64.60;;;;;;5005094;28;20500;-67
2021/06/04 08:00:44;;;;;;;5.80;3.28;;;24.30;64.40;;;;;;5000557;28;20132;-66
2021/06/04 08:03:12;;;;;;;4.90;3.60;;;24.40;64.00;;;;;;4999551;28;20714;-66
2021/06/04 08:05:38;;;;;;;4.10;3.70;;;24.40;63.40;;;;;;4999679;28;20045;-66
2021/06/04 08:08:05;;;;;;;4.53;3.25;;;24.50;63.30;;;;;;5001527;28;20034;-67
2021/06/04 08:10:33;;;;;;;4.47;3.50;;;24.60;63.20;;;;;;4998739;28;20026;-66
2021/06/04 08:12:59;;;;;;;3.75;3.42;;;24.60;62.80;;;;;;4998468;28;20034;-67
2021/06/04 08:15:32;;;;;;;3.78;3.38;;;24.70;62.30;;;;;;4999491;28;20584;-67
2021/06/04 08:17:58;;;;;;;5.47;3.45;;;24.80;61.90;;;;;;4999551;28;20034;-67
2021/06/04 08:20:33;;;;;;;3.53;3.22;;;24.80;62.20;;;;;;4998028;28;20424;-67
2021/06/04 08:23:01;;;;;;;3.53;3.25;;;24.90;61.30;;;;;;4999966;28;20029;-66
2021/06/04 08:25:36;;;;;;;3.88;3.15;;;25.00;62.00;;;;;;5000055;28;20215;-66
2021/06/04 08:28:02;;;;;;;3.75;3.30;;;25.10;60.50;;;;;;4995253;28;20564;-66
2021/06/04 08:30:28;;;;;;;2.90;2.67;;;25.20;61.00;;;;;;4981038;28;20494;-67
2021/06/04 08:32:54;;;;;;;3.53;3.08;;;25.30;60.60;;;;;;4991511;28;20529;-66
2021/06/04 08:35:21;;;;;;;3.28;3.00;;;25.30;59.80;;;;;;4996083;28;20334;-67
2021/06/04 08:37:47;;;;;;;3.83;3.15;;;25.50;59.60;;;;;;4997480;28;20042;-66
2021/06/04 08:40:22;;;;;;;4.70;3.17;;;25.60;59.70;;;;;;5000021;28;20039;-66
2021/06/04 08:42:50;;;;;;;;;;;25.70;59.50;;;;;;4998629;28;20121;-66
2021/06/04 08:45:28;;;;;;;3.63;2.60;;;25.80;59.60;;;;;;5013682;28;19953;-66
2021/06/04 08:48:12;;;;;;;3.80;3.05;;;25.90;59.00;;;;;;4998694;28;20034;-66
2021/06/04 08:51:00;;;;;;;3.30;3.00;;;26.10;57.80;;;;;;5003504;28;20046;-66
2021/06/04 08:53:48;;;;;;;7.63;3.22;;;26.10;58.10;;;;;;4999860;28;20037;-66
2021/06/04 08:56:19;;;;;;;4.55;3.50;;;26.20;57.30;;;;;;5004323;28;20086;-66
2021/06/04 08:58:57;;;;;;;3.85;2.80;;;26.30;57.00;;;;;;4997114;28;20042;-66
2021/06/04 09:01:33;;;;;;;3.85;2.90;;;26.30;57.20;;;;;;4999953;28;20092;-67
2021/06/04 09:04:28;;;;;;;5.30;3.35;;;26.40;57.10;;;;;;4999242;28;20030;-66
2021/06/04 09:07:23;;;;;;;2.95;2.60;;;26.40;56.60;;;;;;4998142;28;20409;-67
2021/06/04 09:10:07;;;;;;;3.10;2.40;;;26.60;55.20;;;;;;4998798;28;20035;-66
2021/06/04 09:12:54;;;;;;;3.60;2.27;;;26.60;53.90;;;;;;4995159;28;20057;-66
2021/06/04 09:15:24;;;;;;;5.50;2.83;;;26.60;55.50;;;;;;4997783;28;20285;-67
2021/06/04 09:18:10;;;;;;;3.78;2.85;;;26.70;55.60;;;;;;4998921;28;20042;-67
2021/06/04 09:20:54;;;;;;;9.65;3.20;;;26.70;55.20;;;;;;4998873;28;20109;-67
2021/06/04 09:23:35;;;;;;;5.53;2.83;;;26.80;55.80;;;;;;4999387;28;20030;-66
2021/06/04 09:26:04;;;;;;;5.72;2.63;;;26.90;54.80;;;;;;5001671;28;20644;-66
2021/06/04 09:28:46;;;;;;;6.90;3.03;;;26.90;55.20;;;;;;5002284;28;20029;-67
2021/06/04 09:31:35;;;;;;;6.93;2.33;;;26.90;54.80;;;;;;4999221;28;20042;-67
2021/06/04 09:34:26;;;;;;;4.13;2.50;;;26.90;54.20;;;;;;4998738;28;20409;-66
2021/06/04 09:36:58;;;;;;;4.28;2.40;;;26.80;54.00;;;;;;4995177;28;20397;-67
2021/06/04 09:39:46;;;;;;;3.33;2.08;;;26.80;53.80;;;;;;5003532;28;20037;-66
2021/06/04 09:42:31;;;;;;;2.67;1.70;;;26.80;53.50;;;;;;4999511;28;20603;-67
2021/06/04 09:45:15;;;;;;;4.05;1.95;;;26.80;53.30;;;;;;4998507;28;20042;-67
2021/06/04 09:47:44;;;;;;;5.23;1.67;;;26.70;52.20;;;;;;4996584;28;20037;-67
2021/06/04 09:50:20;;;;;;;2.85;1.67;;;26.70;53.10;;;;;;4999077;28;20378;-67
2021/06/04 09:52:47;;;;;;;4.70;1.95;;;26.60;52.50;;;;;;4994750;28;20044;-67
2021/06/04 09:55:22;;;;;;;6.50;1.90;;;26.60;52.90;;;;;;5001750;28;20045;-66
2021/06/04 09:58:12;;;;;;;5.82;1.70;;;26.60;52.10;;;;;;4995305;28;20065;-66
2021/06/04 10:00:39;;;;;;;4.95;1.80;;;26.60;51.90;;;;;;4994885;28;20508;-67
2021/06/04 10:03:38;;;;;;;3.10;1.52;;;26.60;52.20;;;;;;4998268;28;20083;-66
2021/06/04 10:06:07;;;;;;;3.78;1.38;;;26.50;51.40;;;;;;4998528;28;20579;-67
2021/06/04 10:08:57;;;;;;;2.85;1.45;;;26.60;51.50;;;;;;4996559;28;20458;-67
2021/06/04 10:11:24;;;;;;;2.95;1.70;;;26.60;50.20;;;;;;4995780;28;20574;-67
2021/06/04 10:14:13;;;;;;;3.95;1.83;;;26.60;51.30;;;;;;4997241;28;20050;-66
2021/06/04 10:19:22;;;;;;;3.70;1.70;;;26.70;50.80;;;;;;4998150;28;20095;-67
2021/06/04 10:22:07;;;;;;;8.77;3.00;;;26.70;51.40;;;;;;4996982;28;20037;-67
2021/06/04 10:24:36;;;;;;;6.28;2.17;;;26.60;51.00;;;;;;4997037;28;20152;-66
2021/06/04 10:27:06;;;;;;;5.30;1.70;;;26.60;51.10;;;;;;4996111;28;20547;-66
2021/06/04 10:29:32;;;;;;;2.35;1.63;;;26.60;51.10;;;;;;4997221;28;20582;-67
2021/06/04 10:32:17;;;;;;;2.90;1.50;;;26.60;51.20;;;;;;4997692;28;20566;-66
2021/06/04 10:34:45;;;;;;;;;;;26.50;49.70;;;;;;4996094;28;20444;-66
2021/06/04 10:37:40;;;;;;;4.40;1.42;;;26.50;49.50;;;;;;4995821;28;19924;-67
2021/06/04 10:40:10;;;;;;;3.00;1.10;;;26.40;49.40;;;;;;4998686;28;20033;-66
2021/06/04 10:42:51;;;;;;;1.30;1.20;;;26.40;50.30;;;;;;4996855;28;20300;-67
2021/06/04 10:45:20;;;;;;;5.88;1.30;;;26.30;50.00;;;;;;4998055;28;20524;-67
2021/06/04 10:48:08;;;;;;;1.48;1.15;;;26.20;50.50;;;;;;4996495;28;20262;-67
2021/06/04 10:50:47;;;;;;;3.33;1.50;;;26.20;49.90;;;;;;4997040;28;20034;-67
2021/06/04 10:53:29;;;;;;;1.67;1.20;;;26.10;50.10;;;;;;4998344;28;20066;-66
2021/06/04 10:56:29;;;;;;;2.17;1.02;;;25.90;50.50;;;;;;4996584;28;20048;-66
2021/06/04 10:58:55;;;;;;;1.48;1.20;;;25.70;51.20;;;;;;4996912;28;20041;-66
2021/06/04 11:01:43;;;;;;;4.50;1.42;;;25.50;51.70;;;;;;4994773;28;20039;-66
2021/06/04 11:04:32;;;;;;;1.30;1.00;;;25.40;51.90;;;;;;4994010;28;20073;-67
2021/06/04 11:07:07;;;;;;;3.78;1.27;;;25.20;52.00;;;;;;4989545;28;20136;-66
2021/06/04 11:09:47;;;;;;;3.65;1.17;;;25.00;52.10;;;;;;4996234;28;20034;-66
2021/06/04 11:12:47;;;;;;;3.38;1.38;;;24.80;53.80;;;;;;4995600;28;20030;-67
2021/06/04 11:15:58;;;;;;;2.83;1.27;;;24.70;54.30;;;;;;4997688;28;20567;-66
2021/06/04 11:18:29;;;;;;;2.00;1.30;;;24.60;54.90;;;;;;4988651;28;20052;-66
2021/06/04 11:20:57;;;;;;;2.15;1.10;;;24.50;55.00;;;;;;5000529;28;20537;-67
2021/06/04 11:23:45;;;;;;;1.65;1.20;;;24.40;55.10;;;;;;4999480;28;20588;-66
2021/06/04 11:26:22;;;;;;;2.22;1.17;;;24.30;55.40;;;;;;5001007;28;20030;-66
2021/06/04 11:29:01;;;;;;;2.17;1.15;;;24.30;56.00;;;;;;4999386;28;20038;-66
2021/06/04 11:32:04;;;;;;;1.75;1.13;;;24.30;56.70;;;;;;5000469;28;20034;-66
2021/06/04 11:34:45;;;;;;;1.35;1.02;;;24.30;56.20;;;;;;4998944;28;20116;-66
2021/06/04 11:37:17;;;;;;;2.03;0.85;;;24.20;56.00;;;;;;4999832;28;20050;-66
2021/06/04 11:39:47;;;;;;;3.72;1.25;;;24.30;56.00;;;;;;4995424;28;21345;-66
2021/06/04 11:42:36;;;;;;;1.27;0.90;;;24.20;56.00;;;;;;4995778;28;20405;-66
2021/06/04 11:45:06;;;;;;;1.85;0.90;;;24.30;56.20;;;;;;4995012;28;20059;-67
2021/06/04 11:47:35;;;;;;;0.95;0.73;;;24.20;56.30;;;;;;4995808;28;20524;-66
2021/06/04 11:50:06;;;;;;;1.80;1.25;;;24.30;56.40;;;;;;4994679;28;20046;-67
2021/06/04 11:52:35;;;;;;;3.25;1.10;;;24.30;56.00;;;;;;4995346;28;20301;-66
2021/06/04 11:55:25;;;;;;;4.53;1.20;;;24.20;55.90;;;;;;4996680;28;20257;-66
2021/06/04 11:57:57;;;;;;;2.92;1.25;;;24.30;55.90;;;;;;4997420;28;20417;-66
2021/06/04 12:00:29;;;;;;;2.03;1.20;;;24.20;56.60;;;;;;4991654;28;20453;-66
2021/06/04 12:03:09;;;;;;;2.97;1.23;;;24.20;55.90;;;;;;4998157;28;20087;-67
2021/06/04 12:05:53;;;;;;;1.63;1.17;;;24.20;56.40;;;;;;5002802;28;20027;-66
2021/06/04 12:08:24;;;;;;;13.30;2.10;;;24.10;56.60;;;;;;5000922;28;20033;-66
2021/06/04 12:10:53;;;;;;;2.30;1.20;;;24.10;56.70;;;;;;4998773;28;20038;-67
2021/06/04 12:13:41;;;;;;;2.88;1.38;;;24.10;56.90;;;;;;4999248;28;20048;-66
2021/06/04 12:16:22;;;;;;;;;;;;;;;;;;;;;
2021/06/04 12:19:05;;;;;;;1.98;1.50;;;24.00;57.30;;;;;;4998890;28;20042;-67
2021/06/04 12:21:43;;;;;;;1.75;1.50;;;24.00;57.50;;;;;;5001220;28;20041;-66
2021/06/04 12:24:20;;;;;;;3.58;1.33;;;23.90;57.60;;;;;;4999472;28;20065;-66
2021/06/04 12:26:52;;;;;;;2.45;1.55;;;23.90;57.90;;;;;;5000423;28;20120;-67
2021/06/04 12:29:21;;;;;;;3.17;1.60;;;23.80;57.90;;;;;;4998462;28;20088;-66
2021/06/04 12:32:04;;;;;;;3.72;1.45;;;23.90;58.10;;;;;;4999319;28;20033;-66
2021/06/04 12:34:35;;;;;;;3.42;1.60;;;23.80;58.30;;;;;;5001415;28;20037;-67
2021/06/04 12:37:27;;;;;;;4.25;1.77;;;23.80;58.50;;;;;;5000745;28;20449;-66
2021/06/04 12:40:07;;;;;;;3.47;1.83;;;23.80;59.10;;;;;;4994469;28;20085;-67
2021/06/04 12:42:36;;;;;;;2.88;2.03;;;23.90;59.10;;;;;;4999371;28;20039;-67
2021/06/04 12:45:11;;;;;;;3.35;1.85;;;23.90;59.10;;;;;;4998415;28;20038;-66
2021/06/04 12:47:37;;;;;;;2.97;1.92;;;24.00;59.40;;;;;;4998919;28;20118;-67
2021/06/04 12:50:05;;;;;;;4.93;1.92;;;24.10;59.40;;;;;;4999091;28;20114;-67
2021/06/04 12:52:31;;;;;;;3.83;1.95;;;24.10;59.60;;;;;;4999789;28;20041;-67
2021/06/04 12:55:15;;;;;;;4.35;1.83;;;24.10;59.40;;;;;;5003352;28;20404;-67
2021/06/04 12:57:41;;;;;;;2.10;1.63;;;24.20;59.40;;;;;;5000408;28;20122;-67
2021/06/04 13:00:31;;;;;;;4.18;1.75;;;24.20;59.10;;;;;;4999055;28;20034;-66
2021/06/04 13:03:08;;;;;;;3.33;1.75;;;24.30;59.30;;;;;;4992959;28;20163;-66
2021/06/04 13:05:35;;;;;;;2.17;1.60;;;24.40;59.30;;;;;;4993132;28;20365;-67
2021/06/04 13:08:09;;;;;;;2.03;1.52;;;24.40;59.00;;;;;;4995763;28;20088;-66
2021/06/04 13:10:46;;;;;;;2.45;1.52;;;24.50;59.10;;;;;;4991750;28;20521;-67
2021/06/04 13:13:13;;;;;;;4.80;1.70;;;24.60;59.10;;;;;;4995480;28;20046;-67
2021/06/04 13:15:41;;;;;;;2.53;1.75;;;24.70;59.00;;;;;;4998168;28;20069;-66
2021/06/04 13:18:10;;;;;;;3.53;1.42;;;24.70;58.80;;;;;;4997809;28;20120;-67